Hillisburg, Indiana
Current Conditions -  °F | °C
As of 8:55 AM on Saturday 22 Nov 2014 (Local Time) from KFKR Reporting Station
Broken Clouds Broken Clouds  
Wind Chill: 35°   Ceiling: 4600
Heat Index: 40°   Visibility: 10mi
Dew Point: 36°   Wind: 8mph
Humidity: 84%   Direction: 170°S
Pressure: 30.15"   Gusts: NA
Location:  40.29°N, 86.34°W
Report Text: KFKR 221355Z AUTO 17007KT 10SM BKN046 BKN060 05/02 A3015 RMK AO2 T00450020
Loading
Personal Weather Stations






























Interactive Weather Map New forecast layout! Learn more

10-Day Weather Forecast

Advertisements
Track Severe Weather on mobile